sensor_id;sensor_type;location;lat;lon;timestamp;temperature;humidity
28614;DHT22;15806;53.548;9.964;2024-02-26T00:00:56;5.90;99.90
28614;DHT22;15806;53.548;9.964;2024-02-26T00:02:37;5.90;99.90
28614;DHT22;15806;53.548;9.964;2024-02-26T00:04:18;5.90;99.90
28614;DHT22;15806;53.548;9.964;2024-02-26T00:05:58;5.90;99.90
28614;DHT22;15806;53.548;9.964;2024-02-26T00:07:39;5.90;99.90
28614;DHT22;15806;53.548;9.964;2024-02-26T00:09:19;6.00;99.90
28614;DHT22;15806;53.548;9.964;2024-02-26T00:11:00;6.00;99.90
28614;DHT22;15806;53.548;9.964;2024-02-26T00:12:40;6.10;99.90
28614;DHT22;15806;53.548;9.964;2024-02-26T00:14:21;6.00;99.90
28614;DHT22;15806;53.548;9.964;2024-02-26T00:16:02;6.00;99.90
28614;DHT22;15806;53.548;9.964;2024-02-26T00:17:42;6.10;99.90
28614;DHT22;15806;53.548;9.964;2024-02-26T00:19:23;6.20;99.90
28614;DHT22;15806;53.548;9.964;2024-02-26T00:21:03;6.20;99.90
28614;DHT22;15806;53.548;9.964;2024-02-26T00:22:44;6.20;99.90
28614;DHT22;15806;53.548;9.964;2024-02-26T00:24:25;6.20;99.90
28614;DHT22;15806;53.548;9.964;2024-02-26T00:26:06;6.30;99.90
28614;DHT22;15806;53.548;9.964;2024-02-26T00:27:46;6.20;99.90
28614;DHT22;15806;53.548;9.964;2024-02-26T00:29:27;6.10;99.90
28614;DHT22;15806;53.548;9.964;2024-02-26T00:31:07;6.20;99.90
28614;DHT22;15806;53.548;9.964;2024-02-26T00:32:48;6.20;99.90
28614;DHT22;15806;53.548;9.964;2024-02-26T00:34:28;6.10;99.90
28614;DHT22;15806;53.548;9.964;2024-02-26T00:36:09;6.10;99.90
28614;DHT22;15806;53.548;9.964;2024-02-26T00:37:49;6.10;99.90
28614;DHT22;15806;53.548;9.964;2024-02-26T00:39:30;6.20;99.90
28614;DHT22;15806;53.548;9.964;2024-02-26T00:41:10;6.20;99.90
28614;DHT22;15806;53.548;9.964;2024-02-26T00:42:51;6.20;99.90
28614;DHT22;15806;53.548;9.964;2024-02-26T00:44:31;6.20;99.90
28614;DHT22;15806;53.548;9.964;2024-02-26T00:46:12;6.20;99.90
28614;DHT22;15806;53.548;9.964;2024-02-26T00:47:52;6.20;99.90
28614;DHT22;15806;53.548;9.964;2024-02-26T00:49:33;6.30;99.90
28614;DHT22;15806;53.548;9.964;2024-02-26T00:51:13;6.30;99.90
28614;DHT22;15806;53.548;9.964;2024-02-26T00:52:54;6.30;99.90
28614;DHT22;15806;53.548;9.964;2024-02-26T00:54:34;6.30;99.90
28614;DHT22;15806;53.548;9.964;2024-02-26T00:56:15;6.20;99.90
28614;DHT22;15806;53.548;9.964;2024-02-26T00:57:55;6.20;99.90
28614;DHT22;15806;53.548;9.964;2024-02-26T00:59:36;6.20;99.90
28614;DHT22;15806;53.548;9.964;2024-02-26T01:01:17;6.10;99.90
28614;DHT22;15806;53.548;9.964;2024-02-26T01:02:57;6.10;99.90
28614;DHT22;15806;53.548;9.964;2024-02-26T01:04:38;6.10;99.90
28614;DHT22;15806;53.548;9.964;2024-02-26T01:06:18;6.20;99.90
28614;DHT22;15806;53.548;9.964;2024-02-26T01:07:59;6.10;99.90
28614;DHT22;15806;53.548;9.964;2024-02-26T01:09:39;6.10;99.90
28614;DHT22;15806;53.548;9.964;2024-02-26T01:11:20;6.10;99.90
28614;DHT22;15806;53.548;9.964;2024-02-26T01:13:01;6.00;99.90
28614;DHT22;15806;53.548;9.964;2024-02-26T01:14:42;6.00;99.90
28614;DHT22;15806;53.548;9.964;2024-02-26T01:16:23;6.00;99.90
28614;DHT22;15806;53.548;9.964;2024-02-26T01:18:04;6.30;99.90
28614;DHT22;15806;53.548;9.964;2024-02-26T01:19:44;6.40;99.90
28614;DHT22;15806;53.548;9.964;2024-02-26T01:21:25;6.40;99.90
28614;DHT22;15806;53.548;9.964;2024-02-26T01:23:05;6.30;99.90
28614;DHT22;15806;53.548;9.964;2024-02-26T01:24:46;6.30;99.90
28614;DHT22;15806;53.548;9.964;2024-02-26T01:26:26;6.30;99.90
28614;DHT22;15806;53.548;9.964;2024-02-26T01:28:07;6.30;99.90
28614;DHT22;15806;53.548;9.964;2024-02-26T01:29:47;6.20;99.90
28614;DHT22;15806;53.548;9.964;2024-02-26T01:31:28;6.20;99.90
28614;DHT22;15806;53.548;9.964;2024-02-26T01:33:08;6.30;99.90
28614;DHT22;15806;53.548;9.964;2024-02-26T01:34:49;6.40;99.90
28614;DHT22;15806;53.548;9.964;2024-02-26T01:36:29;6.40;99.90
28614;DHT22;15806;53.548;9.964;2024-02-26T01:38:10;6.40;99.90
28614;DHT22;15806;53.548;9.964;2024-02-26T01:39:50;6.40;99.90
28614;DHT22;15806;53.548;9.964;2024-02-26T01:41:31;6.30;99.90
28614;DHT22;15806;53.548;9.964;2024-02-26T01:43:11;6.40;99.90
28614;DHT22;15806;53.548;9.964;2024-02-26T01:44:52;6.40;99.90
28614;DHT22;15806;53.548;9.964;2024-02-26T01:46:34;6.40;99.90
28614;DHT22;15806;53.548;9.964;2024-02-26T01:48:16;6.40;99.90
28614;DHT22;15806;53.548;9.964;2024-02-26T01:49:57;6.40;99.90
28614;DHT22;15806;53.548;9.964;2024-02-26T01:51:38;6.40;99.90
28614;DHT22;15806;53.548;9.964;2024-02-26T01:53:20;6.40;99.90
28614;DHT22;15806;53.548;9.964;2024-02-26T01:55:01;6.40;99.90
28614;DHT22;15806;53.548;9.964;2024-02-26T01:56:41;6.40;99.90
28614;DHT22;15806;53.548;9.964;2024-02-26T01:58:22;6.40;99.90
28614;DHT22;15806;53.548;9.964;2024-02-26T02:00:03;6.40;99.90
28614;DHT22;15806;53.548;9.964;2024-02-26T02:01:45;6.30;99.90
28614;DHT22;15806;53.548;9.964;2024-02-26T02:03:28;6.30;99.90
28614;DHT22;15806;53.548;9.964;2024-02-26T02:05:10;6.30;99.90
28614;DHT22;15806;53.548;9.964;2024-02-26T02:06:52;6.30;99.90
28614;DHT22;15806;53.548;9.964;2024-02-26T02:08:34;6.30;99.90
28614;DHT22;15806;53.548;9.964;2024-02-26T02:10:15;6.30;99.90
28614;DHT22;15806;53.548;9.964;2024-02-26T02:11:56;6.30;99.90
28614;DHT22;15806;53.548;9.964;2024-02-26T02:13:37;6.30;99.90
28614;DHT22;15806;53.548;9.964;2024-02-26T02:15:18;6.30;99.90
28614;DHT22;15806;53.548;9.964;2024-02-26T02:16:58;6.40;99.90
28614;DHT22;15806;53.548;9.964;2024-02-26T02:18:39;6.30;99.90
28614;DHT22;15806;53.548;9.964;2024-02-26T02:20:24;6.30;99.90
28614;DHT22;15806;53.548;9.964;2024-02-26T02:22:04;6.30;99.90
28614;DHT22;15806;53.548;9.964;2024-02-26T02:23:45;6.30;99.90
28614;DHT22;15806;53.548;9.964;2024-02-26T02:25:25;6.30;99.90
28614;DHT22;15806;53.548;9.964;2024-02-26T02:27:06;6.40;99.90
28614;DHT22;15806;53.548;9.964;2024-02-26T02:28:48;6.30;99.90
28614;DHT22;15806;53.548;9.964;2024-02-26T02:30:29;6.30;99.90
28614;DHT22;15806;53.548;9.964;2024-02-26T02:32:11;6.30;99.90
28614;DHT22;15806;53.548;9.964;2024-02-26T02:33:51;6.30;99.90
28614;DHT22;15806;53.548;9.964;2024-02-26T02:35:32;6.30;99.90
28614;DHT22;15806;53.548;9.964;2024-02-26T02:37:12;6.20;99.90
28614;DHT22;15806;53.548;9.964;2024-02-26T02:38:53;6.20;99.90
28614;DHT22;15806;53.548;9.964;2024-02-26T02:40:33;6.20;99.90
28614;DHT22;15806;53.548;9.964;2024-02-26T02:42:15;6.20;99.90
28614;DHT22;15806;53.548;9.964;2024-02-26T02:43:55;6.20;99.90
28614;DHT22;15806;53.548;9.964;2024-02-26T02:45:36;6.20;99.90
28614;DHT22;15806;53.548;9.964;2024-02-26T02:47:16;6.20;99.90
28614;DHT22;15806;53.548;9.964;2024-02-26T02:48:57;6.20;99.90
28614;DHT22;15806;53.548;9.964;2024-02-26T02:50:37;6.20;99.90
28614;DHT22;15806;53.548;9.964;2024-02-26T02:52:18;6.20;99.90
28614;DHT22;15806;53.548;9.964;2024-02-26T02:53:58;6.20;99.90
28614;DHT22;15806;53.548;9.964;2024-02-26T02:55:39;6.20;99.90
28614;DHT22;15806;53.548;9.964;2024-02-26T02:57:19;6.20;99.90
28614;DHT22;15806;53.548;9.964;2024-02-26T02:59:00;6.20;99.90
28614;DHT22;15806;53.548;9.964;2024-02-26T03:00:41;6.20;99.90
28614;DHT22;15806;53.548;9.964;2024-02-26T03:02:21;6.20;99.90
28614;DHT22;15806;53.548;9.964;2024-02-26T03:04:02;6.20;99.90
28614;DHT22;15806;53.548;9.964;2024-02-26T03:05:42;6.20;99.90
28614;DHT22;15806;53.548;9.964;2024-02-26T03:07:23;6.20;99.90
28614;DHT22;15806;53.548;9.964;2024-02-26T03:09:03;6.10;99.90
28614;DHT22;15806;53.548;9.964;2024-02-26T03:10:44;6.20;99.90
28614;DHT22;15806;53.548;9.964;2024-02-26T03:12:24;6.20;99.90
28614;DHT22;15806;53.548;9.964;2024-02-26T03:14:05;6.20;99.90
28614;DHT22;15806;53.548;9.964;2024-02-26T03:15:45;6.20;99.90
28614;DHT22;15806;53.548;9.964;2024-02-26T03:17:26;6.20;99.90
28614;DHT22;15806;53.548;9.964;2024-02-26T03:19:06;6.20;99.90
28614;DHT22;15806;53.548;9.964;2024-02-26T03:20:47;6.30;99.90
28614;DHT22;15806;53.548;9.964;2024-02-26T03:22:27;6.30;99.90
28614;DHT22;15806;53.548;9.964;2024-02-26T03:24:08;6.20;99.90
28614;DHT22;15806;53.548;9.964;2024-02-26T03:25:48;6.20;99.90
28614;DHT22;15806;53.548;9.964;2024-02-26T03:27:29;6.20;99.90
28614;DHT22;15806;53.548;9.964;2024-02-26T03:29:09;6.20;99.90
28614;DHT22;15806;53.548;9.964;2024-02-26T03:30:50;6.20;99.90
28614;DHT22;15806;53.548;9.964;2024-02-26T03:32:30;6.20;99.90
28614;DHT22;15806;53.548;9.964;2024-02-26T03:34:11;6.20;99.90
28614;DHT22;15806;53.548;9.964;2024-02-26T03:35:51;6.20;99.90
28614;DHT22;15806;53.548;9.964;2024-02-26T03:37:32;6.30;99.90
28614;DHT22;15806;53.548;9.964;2024-02-26T03:39:12;6.20;99.90
28614;DHT22;15806;53.548;9.964;2024-02-26T03:40:53;6.20;99.90
28614;DHT22;15806;53.548;9.964;2024-02-26T03:42:33;6.20;99.90
28614;DHT22;15806;53.548;9.964;2024-02-26T03:44:14;6.20;99.90
28614;DHT22;15806;53.548;9.964;2024-02-26T03:45:55;6.20;99.90
28614;DHT22;15806;53.548;9.964;2024-02-26T03:47:37;6.30;99.90
28614;DHT22;15806;53.548;9.964;2024-02-26T03:49:17;6.20;99.90
28614;DHT22;15806;53.548;9.964;2024-02-26T03:50:58;6.20;99.90
28614;DHT22;15806;53.548;9.964;2024-02-26T03:52:38;6.30;99.90
28614;DHT22;15806;53.548;9.964;2024-02-26T03:54:19;6.30;99.90
28614;DHT22;15806;53.548;9.964;2024-02-26T03:56:04;6.40;99.90
28614;DHT22;15806;53.548;9.964;2024-02-26T03:57:44;6.50;99.90
28614;DHT22;15806;53.548;9.964;2024-02-26T03:59:25;6.50;99.90
28614;DHT22;15806;53.548;9.964;2024-02-26T04:01:08;6.50;99.90
28614;DHT22;15806;53.548;9.964;2024-02-26T04:02:48;6.40;99.90
28614;DHT22;15806;53.548;9.964;2024-02-26T04:04:29;6.40;99.90
28614;DHT22;15806;53.548;9.964;2024-02-26T04:06:10;6.50;99.90
28614;DHT22;15806;53.548;9.964;2024-02-26T04:07:50;6.50;99.90
28614;DHT22;15806;53.548;9.964;2024-02-26T04:09:31;6.40;99.90
28614;DHT22;15806;53.548;9.964;2024-02-26T04:11:12;6.40;99.90
28614;DHT22;15806;53.548;9.964;2024-02-26T04:12:52;6.40;99.90
28614;DHT22;15806;53.548;9.964;2024-02-26T04:14:33;6.40;99.90
28614;DHT22;15806;53.548;9.964;2024-02-26T04:16:13;6.40;99.90
28614;DHT22;15806;53.548;9.964;2024-02-26T04:17:54;6.40;99.90
28614;DHT22;15806;53.548;9.964;2024-02-26T04:19:34;6.40;99.90
28614;DHT22;15806;53.548;9.964;2024-02-26T04:21:15;6.40;99.90
28614;DHT22;15806;53.548;9.964;2024-02-26T04:22:55;6.30;99.90
28614;DHT22;15806;53.548;9.964;2024-02-26T04:24:36;6.30;99.90
28614;DHT22;15806;53.548;9.964;2024-02-26T04:26:16;6.30;99.90
28614;DHT22;15806;53.548;9.964;2024-02-26T04:27:57;6.40;99.90
28614;DHT22;15806;53.548;9.964;2024-02-26T04:29:37;6.40;99.90
28614;DHT22;15806;53.548;9.964;2024-02-26T04:31:18;6.60;99.90
28614;DHT22;15806;53.548;9.964;2024-02-26T04:32:58;6.70;99.90
28614;DHT22;15806;53.548;9.964;2024-02-26T04:34:39;6.60;99.90
28614;DHT22;15806;53.548;9.964;2024-02-26T04:36:19;6.60;99.90
28614;DHT22;15806;53.548;9.964;2024-02-26T04:38:00;6.60;99.90
28614;DHT22;15806;53.548;9.964;2024-02-26T04:39:41;6.60;99.90
28614;DHT22;15806;53.548;9.964;2024-02-26T04:41:21;6.70;99.90
28614;DHT22;15806;53.548;9.964;2024-02-26T04:43:02;6.70;99.90
28614;DHT22;15806;53.548;9.964;2024-02-26T04:44:42;6.70;99.90
28614;DHT22;15806;53.548;9.964;2024-02-26T04:46:23;6.70;99.90
28614;DHT22;15806;53.548;9.964;2024-02-26T04:48:03;6.70;99.90
28614;DHT22;15806;53.548;9.964;2024-02-26T04:49:44;6.80;99.90
28614;DHT22;15806;53.548;9.964;2024-02-26T04:51:24;6.90;99.90
28614;DHT22;15806;53.548;9.964;2024-02-26T04:53:05;6.80;99.90
28614;DHT22;15806;53.548;9.964;2024-02-26T04:54:46;6.90;99.90
28614;DHT22;15806;53.548;9.964;2024-02-26T04:56:26;6.90;99.90
28614;DHT22;15806;53.548;9.964;2024-02-26T04:58:07;6.90;99.90
28614;DHT22;15806;53.548;9.964;2024-02-26T04:59:47;6.90;99.90
28614;DHT22;15806;53.548;9.964;2024-02-26T05:01:28;6.80;99.90
28614;DHT22;15806;53.548;9.964;2024-02-26T05:03:08;6.80;99.90
28614;DHT22;15806;53.548;9.964;2024-02-26T05:04:49;6.80;99.90
28614;DHT22;15806;53.548;9.964;2024-02-26T05:06:29;6.80;99.90
28614;DHT22;15806;53.548;9.964;2024-02-26T05:08:10;6.70;99.90
28614;DHT22;15806;53.548;9.964;2024-02-26T05:09:50;6.70;99.90
28614;DHT22;15806;53.548;9.964;2024-02-26T05:11:31;6.80;99.90
28614;DHT22;15806;53.548;9.964;2024-02-26T05:13:11;6.70;99.90
28614;DHT22;15806;53.548;9.964;2024-02-26T05:14:52;6.70;99.90
28614;DHT22;15806;53.548;9.964;2024-02-26T05:16:32;6.70;99.90
28614;DHT22;15806;53.548;9.964;2024-02-26T05:18:13;6.70;99.90
28614;DHT22;15806;53.548;9.964;2024-02-26T05:19:53;6.60;99.90
28614;DHT22;15806;53.548;9.964;2024-02-26T05:21:34;6.60;99.90
28614;DHT22;15806;53.548;9.964;2024-02-26T05:23:14;6.50;99.90
28614;DHT22;15806;53.548;9.964;2024-02-26T05:24:55;6.50;99.90
28614;DHT22;15806;53.548;9.964;2024-02-26T05:26:36;6.50;99.90
28614;DHT22;15806;53.548;9.964;2024-02-26T05:28:16;6.40;99.90
28614;DHT22;15806;53.548;9.964;2024-02-26T05:29:57;6.40;99.90
28614;DHT22;15806;53.548;9.964;2024-02-26T05:31:37;6.30;99.90
28614;DHT22;15806;53.548;9.964;2024-02-26T05:33:19;6.20;99.90
28614;DHT22;15806;53.548;9.964;2024-02-26T05:34:59;6.20;99.90
28614;DHT22;15806;53.548;9.964;2024-02-26T05:36:40;6.20;99.90
28614;DHT22;15806;53.548;9.964;2024-02-26T05:38:20;6.10;99.90
28614;DHT22;15806;53.548;9.964;2024-02-26T05:40:01;6.00;99.90
28614;DHT22;15806;53.548;9.964;2024-02-26T05:41:42;5.90;99.90
28614;DHT22;15806;53.548;9.964;2024-02-26T05:43:22;5.80;99.90
28614;DHT22;15806;53.548;9.964;2024-02-26T05:45:03;5.70;99.90
28614;DHT22;15806;53.548;9.964;2024-02-26T05:46:43;5.60;99.90
28614;DHT22;15806;53.548;9.964;2024-02-26T05:48:24;5.60;99.90
28614;DHT22;15806;53.548;9.964;2024-02-26T05:50:05;5.60;99.90
28614;DHT22;15806;53.548;9.964;2024-02-26T05:51:46;5.60;99.90
28614;DHT22;15806;53.548;9.964;2024-02-26T05:53:26;5.60;99.90
28614;DHT22;15806;53.548;9.964;2024-02-26T05:55:07;5.60;99.90
28614;DHT22;15806;53.548;9.964;2024-02-26T05:56:48;5.60;99.90
28614;DHT22;15806;53.548;9.964;2024-02-26T05:58:28;5.60;99.90
28614;DHT22;15806;53.548;9.964;2024-02-26T06:00:09;5.50;99.90
28614;DHT22;15806;53.548;9.964;2024-02-26T06:01:50;5.60;99.90
28614;DHT22;15806;53.548;9.964;2024-02-26T06:03:30;5.60;99.90
28614;DHT22;15806;53.548;9.964;2024-02-26T06:05:10;5.60;99.90
28614;DHT22;15806;53.548;9.964;2024-02-26T06:06:51;5.60;99.90
28614;DHT22;15806;53.548;9.964;2024-02-26T06:08:31;5.60;99.90
28614;DHT22;15806;53.548;9.964;2024-02-26T06:10:12;5.50;99.90
28614;DHT22;15806;53.548;9.964;2024-02-26T06:11:52;5.50;99.90
28614;DHT22;15806;53.548;9.964;2024-02-26T06:13:34;5.40;99.90
28614;DHT22;15806;53.548;9.964;2024-02-26T06:15:14;5.40;99.90
28614;DHT22;15806;53.548;9.964;2024-02-26T06:16:55;5.30;99.90
28614;DHT22;15806;53.548;9.964;2024-02-26T06:18:35;5.30;99.90
28614;DHT22;15806;53.548;9.964;2024-02-26T06:20:16;5.20;99.90
28614;DHT22;15806;53.548;9.964;2024-02-26T06:21:56;5.20;99.90
28614;DHT22;15806;53.548;9.964;2024-02-26T06:23:38;5.20;99.90
28614;DHT22;15806;53.548;9.964;2024-02-26T06:25:18;5.10;99.90
28614;DHT22;15806;53.548;9.964;2024-02-26T06:26:59;5.10;99.90
28614;DHT22;15806;53.548;9.964;2024-02-26T06:28:39;5.00;99.90
28614;DHT22;15806;53.548;9.964;2024-02-26T06:30:20;5.00;99.90
28614;DHT22;15806;53.548;9.964;2024-02-26T06:32:00;5.00;99.90
28614;DHT22;15806;53.548;9.964;2024-02-26T06:33:41;5.00;99.90
28614;DHT22;15806;53.548;9.964;2024-02-26T06:35:21;4.90;99.90
28614;DHT22;15806;53.548;9.964;2024-02-26T06:37:02;4.90;99.90
28614;DHT22;15806;53.548;9.964;2024-02-26T06:38:42;4.90;99.90
28614;DHT22;15806;53.548;9.964;2024-02-26T06:40:23;4.90;99.90
28614;DHT22;15806;53.548;9.964;2024-02-26T06:42:03;4.90;99.90
28614;DHT22;15806;53.548;9.964;2024-02-26T06:43:44;4.90;99.90
28614;DHT22;15806;53.548;9.964;2024-02-26T06:45:25;4.80;99.90
28614;DHT22;15806;53.548;9.964;2024-02-26T06:47:05;4.80;99.90
28614;DHT22;15806;53.548;9.964;2024-02-26T06:48:48;4.80;99.90
28614;DHT22;15806;53.548;9.964;2024-02-26T06:50:29;4.80;99.90
28614;DHT22;15806;53.548;9.964;2024-02-26T06:52:09;4.90;99.90
28614;DHT22;15806;53.548;9.964;2024-02-26T06:53:50;4.90;99.90
28614;DHT22;15806;53.548;9.964;2024-02-26T06:55:30;4.80;99.90
28614;DHT22;15806;53.548;9.964;2024-02-26T06:57:11;4.80;99.90
28614;DHT22;15806;53.548;9.964;2024-02-26T06:58:51;4.80;99.90
28614;DHT22;15806;53.548;9.964;2024-02-26T07:00:32;4.90;99.90
28614;DHT22;15806;53.548;9.964;2024-02-26T07:02:13;4.90;99.90
28614;DHT22;15806;53.548;9.964;2024-02-26T07:03:56;4.80;99.90
28614;DHT22;15806;53.548;9.964;2024-02-26T07:05:42;4.90;99.90
28614;DHT22;15806;53.548;9.964;2024-02-26T07:07:22;4.90;99.90
28614;DHT22;15806;53.548;9.964;2024-02-26T07:09:03;4.90;99.90
28614;DHT22;15806;53.548;9.964;2024-02-26T07:10:43;4.90;99.90
28614;DHT22;15806;53.548;9.964;2024-02-26T07:12:24;4.90;99.90
28614;DHT22;15806;53.548;9.964;2024-02-26T07:14:04;5.00;99.90
28614;DHT22;15806;53.548;9.964;2024-02-26T07:15:47;5.00;99.90
28614;DHT22;15806;53.548;9.964;2024-02-26T07:17:28;5.00;99.90
28614;DHT22;15806;53.548;9.964;2024-02-26T07:19:08;5.00;99.90
28614;DHT22;15806;53.548;9.964;2024-02-26T07:20:49;5.00;99.90
28614;DHT22;15806;53.548;9.964;2024-02-26T07:22:30;5.10;99.90
28614;DHT22;15806;53.548;9.964;2024-02-26T07:24:10;5.10;99.90
28614;DHT22;15806;53.548;9.964;2024-02-26T07:25:51;5.10;99.90
28614;DHT22;15806;53.548;9.964;2024-02-26T07:27:31;5.10;99.90
28614;DHT22;15806;53.548;9.964;2024-02-26T07:29:12;5.10;99.90
28614;DHT22;15806;53.548;9.964;2024-02-26T07:30:52;5.10;99.90
28614;DHT22;15806;53.548;9.964;2024-02-26T07:32:34;5.10;99.90
28614;DHT22;15806;53.548;9.964;2024-02-26T07:34:14;5.00;99.90
28614;DHT22;15806;53.548;9.964;2024-02-26T07:35:55;5.00;99.90
28614;DHT22;15806;53.548;9.964;2024-02-26T07:37:35;5.00;99.90
28614;DHT22;15806;53.548;9.964;2024-02-26T07:39:16;5.00;99.90
28614;DHT22;15806;53.548;9.964;2024-02-26T07:40:56;5.00;99.90
28614;DHT22;15806;53.548;9.964;2024-02-26T07:42:37;5.00;99.90
28614;DHT22;15806;53.548;9.964;2024-02-26T07:44:18;5.10;99.90
28614;DHT22;15806;53.548;9.964;2024-02-26T07:45:59;5.10;99.90
28614;DHT22;15806;53.548;9.964;2024-02-26T07:47:39;5.10;99.90
28614;DHT22;15806;53.548;9.964;2024-02-26T07:49:20;5.20;99.90
28614;DHT22;15806;53.548;9.964;2024-02-26T07:51:00;5.20;99.90
28614;DHT22;15806;53.548;9.964;2024-02-26T07:52:41;5.20;99.90
28614;DHT22;15806;53.548;9.964;2024-02-26T07:54:21;5.20;99.90
28614;DHT22;15806;53.548;9.964;2024-02-26T07:56:02;5.20;99.90
28614;DHT22;15806;53.548;9.964;2024-02-26T07:57:42;5.20;99.90
28614;DHT22;15806;53.548;9.964;2024-02-26T07:59:23;5.20;99.90
28614;DHT22;15806;53.548;9.964;2024-02-26T08:01:03;5.20;99.90
28614;DHT22;15806;53.548;9.964;2024-02-26T08:02:44;5.20;99.90
28614;DHT22;15806;53.548;9.964;2024-02-26T08:04:25;5.30;99.90
28614;DHT22;15806;53.548;9.964;2024-02-26T08:06:05;5.30;99.90
28614;DHT22;15806;53.548;9.964;2024-02-26T08:07:46;5.30;99.90
28614;DHT22;15806;53.548;9.964;2024-02-26T08:09:26;5.30;99.90
28614;DHT22;15806;53.548;9.964;2024-02-26T08:11:07;5.30;99.90
28614;DHT22;15806;53.548;9.964;2024-02-26T08:12:47;5.30;99.90
28614;DHT22;15806;53.548;9.964;2024-02-26T08:14:28;5.30;99.90
28614;DHT22;15806;53.548;9.964;2024-02-26T08:16:08;5.30;99.90
28614;DHT22;15806;53.548;9.964;2024-02-26T08:17:49;5.30;99.90
28614;DHT22;15806;53.548;9.964;2024-02-26T08:19:29;5.30;99.90
28614;DHT22;15806;53.548;9.964;2024-02-26T08:21:10;5.30;99.90
28614;DHT22;15806;53.548;9.964;2024-02-26T08:22:50;5.30;99.90
28614;DHT22;15806;53.548;9.964;2024-02-26T08:24:31;5.40;99.90
28614;DHT22;15806;53.548;9.964;2024-02-26T08:26:11;5.40;99.90
28614;DHT22;15806;53.548;9.964;2024-02-26T08:27:52;5.40;99.90
28614;DHT22;15806;53.548;9.964;2024-02-26T08:29:33;5.40;99.90
28614;DHT22;15806;53.548;9.964;2024-02-26T08:31:13;5.40;99.90
28614;DHT22;15806;53.548;9.964;2024-02-26T08:32:54;5.50;99.90
28614;DHT22;15806;53.548;9.964;2024-02-26T08:34:34;5.40;99.90
28614;DHT22;15806;53.548;9.964;2024-02-26T08:36:15;5.50;99.90
28614;DHT22;15806;53.548;9.964;2024-02-26T08:37:55;5.50;99.90
28614;DHT22;15806;53.548;9.964;2024-02-26T08:39:36;5.40;99.90
28614;DHT22;15806;53.548;9.964;2024-02-26T08:41:16;5.40;99.90
28614;DHT22;15806;53.548;9.964;2024-02-26T08:42:57;5.40;99.90
28614;DHT22;15806;53.548;9.964;2024-02-26T08:44:37;5.40;99.90
28614;DHT22;15806;53.548;9.964;2024-02-26T08:46:18;5.30;99.90
28614;DHT22;15806;53.548;9.964;2024-02-26T08:47:58;5.30;99.90
28614;DHT22;15806;53.548;9.964;2024-02-26T08:49:43;5.40;99.90
28614;DHT22;15806;53.548;9.964;2024-02-26T08:51:23;5.50;99.90
28614;DHT22;15806;53.548;9.964;2024-02-26T08:53:04;5.60;99.90
28614;DHT22;15806;53.548;9.964;2024-02-26T08:54:44;5.60;99.90
28614;DHT22;15806;53.548;9.964;2024-02-26T08:56:25;5.60;99.90
28614;DHT22;15806;53.548;9.964;2024-02-26T08:58:05;5.70;99.90
28614;DHT22;15806;53.548;9.964;2024-02-26T08:59:46;5.70;99.90
28614;DHT22;15806;53.548;9.964;2024-02-26T09:01:26;5.80;99.90
28614;DHT22;15806;53.548;9.964;2024-02-26T09:03:07;5.70;99.90
28614;DHT22;15806;53.548;9.964;2024-02-26T09:04:47;5.70;99.90
28614;DHT22;15806;53.548;9.964;2024-02-26T09:06:28;5.70;99.90
28614;DHT22;15806;53.548;9.964;2024-02-26T09:08:08;5.70;99.90
28614;DHT22;15806;53.548;9.964;2024-02-26T09:09:49;5.60;99.90
28614;DHT22;15806;53.548;9.964;2024-02-26T09:11:29;5.60;99.90
28614;DHT22;15806;53.548;9.964;2024-02-26T09:13:10;5.60;99.90
28614;DHT22;15806;53.548;9.964;2024-02-26T09:14:50;5.70;99.90
28614;DHT22;15806;53.548;9.964;2024-02-26T09:16:31;5.80;99.90
28614;DHT22;15806;53.548;9.964;2024-02-26T09:18:11;5.80;99.90
28614;DHT22;15806;53.548;9.964;2024-02-26T09:19:52;5.80;99.90
28614;DHT22;15806;53.548;9.964;2024-02-26T09:21:32;5.90;99.90
28614;DHT22;15806;53.548;9.964;2024-02-26T09:23:13;5.90;99.90
28614;DHT22;15806;53.548;9.964;2024-02-26T09:24:53;5.90;99.90
28614;DHT22;15806;53.548;9.964;2024-02-26T09:26:34;5.80;99.90
28614;DHT22;15806;53.548;9.964;2024-02-26T09:28:14;5.70;99.90
28614;DHT22;15806;53.548;9.964;2024-02-26T09:29:55;5.60;99.90
28614;DHT22;15806;53.548;9.964;2024-02-26T09:31:35;5.70;99.90
28614;DHT22;15806;53.548;9.964;2024-02-26T09:33:16;5.60;99.90
28614;DHT22;15806;53.548;9.964;2024-02-26T09:34:56;5.70;99.90
28614;DHT22;15806;53.548;9.964;2024-02-26T09:36:37;5.70;99.90
28614;DHT22;15806;53.548;9.964;2024-02-26T09:38:17;5.90;99.90
28614;DHT22;15806;53.548;9.964;2024-02-26T09:39:58;5.90;99.90
28614;DHT22;15806;53.548;9.964;2024-02-26T09:41:38;5.90;99.90
28614;DHT22;15806;53.548;9.964;2024-02-26T09:43:22;6.00;99.90
28614;DHT22;15806;53.548;9.964;2024-02-26T09:45:05;6.00;99.90
28614;DHT22;15806;53.548;9.964;2024-02-26T09:46:47;6.10;99.90
28614;DHT22;15806;53.548;9.964;2024-02-26T09:48:29;6.10;99.90
28614;DHT22;15806;53.548;9.964;2024-02-26T09:50:11;6.00;99.90
28614;DHT22;15806;53.548;9.964;2024-02-26T09:51:54;6.00;99.90
28614;DHT22;15806;53.548;9.964;2024-02-26T09:53:36;6.00;99.90
28614;DHT22;15806;53.548;9.964;2024-02-26T09:55:18;5.90;99.90
28614;DHT22;15806;53.548;9.964;2024-02-26T09:57:00;5.90;99.90
28614;DHT22;15806;53.548;9.964;2024-02-26T09:58:42;6.00;99.90
28614;DHT22;15806;53.548;9.964;2024-02-26T10:00:24;6.00;99.90
28614;DHT22;15806;53.548;9.964;2024-02-26T10:02:10;6.00;99.90
28614;DHT22;15806;53.548;9.964;2024-02-26T10:03:58;6.10;99.90
28614;DHT22;15806;53.548;9.964;2024-02-26T10:05:38;6.10;99.90
28614;DHT22;15806;53.548;9.964;2024-02-26T10:07:20;6.00;99.90
28614;DHT22;15806;53.548;9.964;2024-02-26T10:09:01;6.00;99.90
28614;DHT22;15806;53.548;9.964;2024-02-26T10:10:42;6.00;99.90
28614;DHT22;15806;53.548;9.964;2024-02-26T10:12:23;6.00;99.90
28614;DHT22;15806;53.548;9.964;2024-02-26T10:14:04;6.00;99.90
28614;DHT22;15806;53.548;9.964;2024-02-26T10:15:44;6.00;99.90
28614;DHT22;15806;53.548;9.964;2024-02-26T10:17:25;6.10;99.90
28614;DHT22;15806;53.548;9.964;2024-02-26T10:19:06;6.10;99.90
28614;DHT22;15806;53.548;9.964;2024-02-26T10:21:03;6.10;99.90
28614;DHT22;15806;53.548;9.964;2024-02-26T10:22:44;6.00;99.90
28614;DHT22;15806;53.548;9.964;2024-02-26T10:24:26;6.00;99.90
28614;DHT22;15806;53.548;9.964;2024-02-26T10:26:07;6.00;99.90
28614;DHT22;15806;53.548;9.964;2024-02-26T10:27:49;6.10;99.90
28614;DHT22;15806;53.548;9.964;2024-02-26T10:29:31;6.10;99.90
28614;DHT22;15806;53.548;9.964;2024-02-26T10:31:13;6.20;99.90
28614;DHT22;15806;53.548;9.964;2024-02-26T10:32:57;6.30;99.90
28614;DHT22;15806;53.548;9.964;2024-02-26T10:34:37;6.30;99.90
28614;DHT22;15806;53.548;9.964;2024-02-26T10:36:20;6.50;99.90
28614;DHT22;15806;53.548;9.964;2024-02-26T10:38:00;6.50;99.90
28614;DHT22;15806;53.548;9.964;2024-02-26T10:39:46;6.40;99.90
28614;DHT22;15806;53.548;9.964;2024-02-26T10:41:27;6.40;99.90
28614;DHT22;15806;53.548;9.964;2024-02-26T10:43:08;6.50;99.90
28614;DHT22;15806;53.548;9.964;2024-02-26T10:44:48;6.50;99.90
28614;DHT22;15806;53.548;9.964;2024-02-26T10:46:29;6.50;99.90